Terminal Aerodrome Forecast
Issued by NWS Amarillo, TX

Home | Current Version | Previous Version | Text Only | Print | Product List | Glossary On
Versions: 1 2 3 4 5 6 7 8 9 10 11 12 13 14 15 16
000
FTUS44 KAMA 301100
TAFAMA
TAF
KAMA 301123Z 3012/3112 18011KT P6SM BKN300
     FM301600 20016G23KT P6SM SCT150 BKN300
     FM310000 18009KT P6SM SCT150 BKN300
     FM310800 23008KT P6SM SCT300=

USA.gov is the U.S. government's official web portal to all federal, state and local government web resources and services.